sensor_id;sensor_type;location;lat;lon;timestamp;P1;durP1;ratioP1;P2;durP2;ratioP2
8297;SDS011;4187;42.778;23.242;2023-01-01T00:01:18;113.33;;;71.37;;
8297;SDS011;4187;42.778;23.242;2023-01-01T00:03:47;88.30;;;57.50;;
8297;SDS011;4187;42.778;23.242;2023-01-01T00:06:14;62.27;;;45.43;;
8297;SDS011;4187;42.778;23.242;2023-01-01T00:08:41;67.67;;;47.07;;
8297;SDS011;4187;42.778;23.242;2023-01-01T00:11:08;68.53;;;47.50;;
8297;SDS011;4187;42.778;23.242;2023-01-01T00:13:37;63.50;;;42.30;;
8297;SDS011;4187;42.778;23.242;2023-01-01T00:16:08;54.63;;;40.00;;
8297;SDS011;4187;42.778;23.242;2023-01-01T00:18:37;58.83;;;40.23;;
8297;SDS011;4187;42.778;23.242;2023-01-01T00:21:04;58.70;;;40.73;;
8297;SDS011;4187;42.778;23.242;2023-01-01T00:23:32;70.50;;;45.43;;
8297;SDS011;4187;42.778;23.242;2023-01-01T00:26:00;132.87;;;82.03;;
8297;SDS011;4187;42.778;23.242;2023-01-01T00:28:27;134.63;;;86.73;;
8297;SDS011;4187;42.778;23.242;2023-01-01T00:30:54;139.67;;;86.87;;
8297;SDS011;4187;42.778;23.242;2023-01-01T00:33:22;268.43;;;152.83;;
8297;SDS011;4187;42.778;23.242;2023-01-01T00:35:49;171.50;;;101.57;;
8297;SDS011;4187;42.778;23.242;2023-01-01T00:38:15;126.83;;;83.00;;
8297;SDS011;4187;42.778;23.242;2023-01-01T00:40:42;91.07;;;59.07;;
8297;SDS011;4187;42.778;23.242;2023-01-01T00:43:09;89.33;;;56.63;;
8297;SDS011;4187;42.778;23.242;2023-01-01T00:45:36;67.37;;;49.30;;
8297;SDS011;4187;42.778;23.242;2023-01-01T00:48:03;57.80;;;37.93;;
8297;SDS011;4187;42.778;23.242;2023-01-01T00:50:31;55.37;;;37.80;;
8297;SDS011;4187;42.778;23.242;2023-01-01T00:52:58;70.67;;;48.40;;
8297;SDS011;4187;42.778;23.242;2023-01-01T00:55:24;219.00;;;117.67;;
8297;SDS011;4187;42.778;23.242;2023-01-01T00:57:51;160.00;;;95.33;;
8297;SDS011;4187;42.778;23.242;2023-01-01T01:00:18;103.97;;;63.70;;
8297;SDS011;4187;42.778;23.242;2023-01-01T01:02:45;69.27;;;46.40;;
8297;SDS011;4187;42.778;23.242;2023-01-01T01:05:12;74.13;;;48.30;;
8297;SDS011;4187;42.778;23.242;2023-01-01T01:07:40;67.23;;;46.53;;
8297;SDS011;4187;42.778;23.242;2023-01-01T01:10:07;73.37;;;47.53;;
8297;SDS011;4187;42.778;23.242;2023-01-01T01:12:36;69.83;;;45.20;;
8297;SDS011;4187;42.778;23.242;2023-01-01T01:15:04;78.43;;;54.03;;
8297;SDS011;4187;42.778;23.242;2023-01-01T01:17:32;129.17;;;77.83;;
8297;SDS011;4187;42.778;23.242;2023-01-01T01:19:59;99.50;;;59.23;;
8297;SDS011;4187;42.778;23.242;2023-01-01T01:22:25;79.00;;;52.40;;
8297;SDS011;4187;42.778;23.242;2023-01-01T01:24:54;77.30;;;48.13;;
8297;SDS011;4187;42.778;23.242;2023-01-01T01:27:21;65.50;;;44.63;;
8297;SDS011;4187;42.778;23.242;2023-01-01T01:29:48;64.13;;;43.70;;
8297;SDS011;4187;42.778;23.242;2023-01-01T01:32:14;50.47;;;32.77;;
8297;SDS011;4187;42.778;23.242;2023-01-01T01:34:41;60.17;;;40.77;;
8297;SDS011;4187;42.778;23.242;2023-01-01T01:37:08;55.97;;;38.47;;
8297;SDS011;4187;42.778;23.242;2023-01-01T01:39:36;61.07;;;41.07;;
8297;SDS011;4187;42.778;23.242;2023-01-01T01:42:04;60.73;;;38.63;;
8297;SDS011;4187;42.778;23.242;2023-01-01T01:47:19;53.20;;;36.70;;
8297;SDS011;4187;42.778;23.242;2023-01-01T01:49:52;48.43;;;32.97;;
8297;SDS011;4187;42.778;23.242;2023-01-01T01:52:23;44.60;;;30.07;;
8297;SDS011;4187;42.778;23.242;2023-01-01T01:54:51;45.60;;;30.30;;
8297;SDS011;4187;42.778;23.242;2023-01-01T01:57:20;45.97;;;31.93;;
8297;SDS011;4187;42.778;23.242;2023-01-01T01:59:48;47.07;;;31.00;;
8297;SDS011;4187;42.778;23.242;2023-01-01T02:02:20;44.00;;;32.03;;
8297;SDS011;4187;42.778;23.242;2023-01-01T02:04:52;52.70;;;34.87;;
8297;SDS011;4187;42.778;23.242;2023-01-01T02:07:20;54.53;;;35.00;;
8297;SDS011;4187;42.778;23.242;2023-01-01T02:09:49;53.13;;;35.60;;
8297;SDS011;4187;42.778;23.242;2023-01-01T02:12:16;48.73;;;32.23;;
8297;SDS011;4187;42.778;23.242;2023-01-01T02:14:45;44.63;;;29.17;;
8297;SDS011;4187;42.778;23.242;2023-01-01T02:17:12;40.90;;;28.90;;
8297;SDS011;4187;42.778;23.242;2023-01-01T02:19:52;38.23;;;27.40;;
8297;SDS011;4187;42.778;23.242;2023-01-01T02:22:30;42.27;;;28.97;;
8297;SDS011;4187;42.778;23.242;2023-01-01T02:25:09;57.17;;;42.13;;
8297;SDS011;4187;42.778;23.242;2023-01-01T02:27:48;52.67;;;31.40;;
8297;SDS011;4187;42.778;23.242;2023-01-01T02:30:24;51.57;;;33.13;;
8297;SDS011;4187;42.778;23.242;2023-01-01T02:32:55;58.27;;;37.43;;
8297;SDS011;4187;42.778;23.242;2023-01-01T02:35:26;54.57;;;34.60;;
8297;SDS011;4187;42.778;23.242;2023-01-01T02:38:01;46.40;;;29.27;;
8297;SDS011;4187;42.778;23.242;2023-01-01T02:40:33;49.10;;;32.23;;
8297;SDS011;4187;42.778;23.242;2023-01-01T02:43:03;42.97;;;29.00;;
8297;SDS011;4187;42.778;23.242;2023-01-01T02:45:33;41.37;;;26.93;;
8297;SDS011;4187;42.778;23.242;2023-01-01T02:48:02;38.93;;;26.30;;
8297;SDS011;4187;42.778;23.242;2023-01-01T02:50:30;41.43;;;27.63;;
8297;SDS011;4187;42.778;23.242;2023-01-01T02:53:04;43.47;;;28.70;;
8297;SDS011;4187;42.778;23.242;2023-01-01T02:55:42;42.00;;;28.03;;
8297;SDS011;4187;42.778;23.242;2023-01-01T02:58:19;44.63;;;28.23;;
8297;SDS011;4187;42.778;23.242;2023-01-01T03:01:15;44.07;;;29.43;;
8297;SDS011;4187;42.778;23.242;2023-01-01T03:03:50;45.73;;;30.53;;
8297;SDS011;4187;42.778;23.242;2023-01-01T03:06:27;50.53;;;31.73;;
8297;SDS011;4187;42.778;23.242;2023-01-01T03:09:05;63.03;;;40.60;;
8297;SDS011;4187;42.778;23.242;2023-01-01T03:11:40;73.33;;;44.47;;
8297;SDS011;4187;42.778;23.242;2023-01-01T03:14:13;79.33;;;43.50;;
8297;SDS011;4187;42.778;23.242;2023-01-01T03:16:49;117.10;;;59.13;;
8297;SDS011;4187;42.778;23.242;2023-01-01T03:19:22;103.23;;;55.90;;
8297;SDS011;4187;42.778;23.242;2023-01-01T03:21:52;95.60;;;53.17;;
8297;SDS011;4187;42.778;23.242;2023-01-01T03:24:24;102.67;;;55.67;;
8297;SDS011;4187;42.778;23.242;2023-01-01T03:26:57;101.03;;;54.60;;
8297;SDS011;4187;42.778;23.242;2023-01-01T03:29:28;81.93;;;52.53;;
8297;SDS011;4187;42.778;23.242;2023-01-01T03:32:00;183.43;;;86.47;;
8297;SDS011;4187;42.778;23.242;2023-01-01T03:34:31;132.90;;;69.43;;
8297;SDS011;4187;42.778;23.242;2023-01-01T03:37:03;112.40;;;58.77;;
8297;SDS011;4187;42.778;23.242;2023-01-01T03:39:34;107.03;;;55.20;;
8297;SDS011;4187;42.778;23.242;2023-01-01T03:42:07;84.90;;;48.00;;
8297;SDS011;4187;42.778;23.242;2023-01-01T03:44:41;81.20;;;47.00;;
8297;SDS011;4187;42.778;23.242;2023-01-01T03:47:13;78.40;;;47.40;;
8297;SDS011;4187;42.778;23.242;2023-01-01T03:49:40;66.53;;;43.80;;
8297;SDS011;4187;42.778;23.242;2023-01-01T03:52:18;77.53;;;48.43;;
8297;SDS011;4187;42.778;23.242;2023-01-01T03:54:52;57.33;;;36.83;;
8297;SDS011;4187;42.778;23.242;2023-01-01T03:57:28;52.67;;;29.37;;
8297;SDS011;4187;42.778;23.242;2023-01-01T04:00:03;50.70;;;30.23;;
8297;SDS011;4187;42.778;23.242;2023-01-01T04:02:35;49.33;;;32.23;;
8297;SDS011;4187;42.778;23.242;2023-01-01T04:05:05;48.77;;;34.00;;
8297;SDS011;4187;42.778;23.242;2023-01-01T04:07:35;48.13;;;36.77;;
8297;SDS011;4187;42.778;23.242;2023-01-01T04:10:04;39.37;;;26.77;;
8297;SDS011;4187;42.778;23.242;2023-01-01T04:12:42;44.50;;;26.53;;
8297;SDS011;4187;42.778;23.242;2023-01-01T04:15:10;49.70;;;32.30;;
8297;SDS011;4187;42.778;23.242;2023-01-01T04:17:38;77.67;;;53.87;;
8297;SDS011;4187;42.778;23.242;2023-01-01T04:20:05;61.83;;;35.17;;
8297;SDS011;4187;42.778;23.242;2023-01-01T04:22:33;48.90;;;31.50;;
8297;SDS011;4187;42.778;23.242;2023-01-01T04:25:00;46.97;;;31.87;;
8297;SDS011;4187;42.778;23.242;2023-01-01T04:27:27;48.93;;;30.43;;
8297;SDS011;4187;42.778;23.242;2023-01-01T04:29:53;45.80;;;27.87;;
8297;SDS011;4187;42.778;23.242;2023-01-01T04:32:20;49.63;;;27.20;;
8297;SDS011;4187;42.778;23.242;2023-01-01T04:34:49;42.67;;;24.90;;
8297;SDS011;4187;42.778;23.242;2023-01-01T04:37:15;51.73;;;29.33;;
8297;SDS011;4187;42.778;23.242;2023-01-01T04:39:42;40.97;;;25.97;;
8297;SDS011;4187;42.778;23.242;2023-01-01T04:42:09;48.50;;;27.13;;
8297;SDS011;4187;42.778;23.242;2023-01-01T04:44:36;51.50;;;28.23;;
8297;SDS011;4187;42.778;23.242;2023-01-01T04:47:03;42.70;;;25.70;;
8297;SDS011;4187;42.778;23.242;2023-01-01T04:49:30;43.70;;;25.13;;
8297;SDS011;4187;42.778;23.242;2023-01-01T04:51:58;46.10;;;26.00;;
8297;SDS011;4187;42.778;23.242;2023-01-01T04:54:25;47.97;;;25.83;;
8297;SDS011;4187;42.778;23.242;2023-01-01T04:56:52;49.33;;;27.57;;
8297;SDS011;4187;42.778;23.242;2023-01-01T04:59:19;49.83;;;28.30;;
8297;SDS011;4187;42.778;23.242;2023-01-01T05:01:46;48.43;;;26.43;;
8297;SDS011;4187;42.778;23.242;2023-01-01T05:04:13;78.27;;;39.23;;
8297;SDS011;4187;42.778;23.242;2023-01-01T05:06:41;55.90;;;28.73;;
8297;SDS011;4187;42.778;23.242;2023-01-01T05:09:09;60.40;;;32.80;;
8297;SDS011;4187;42.778;23.242;2023-01-01T05:11:37;146.10;;;54.17;;
8297;SDS011;4187;42.778;23.242;2023-01-01T05:14:04;230.23;;;83.20;;
8297;SDS011;4187;42.778;23.242;2023-01-01T05:16:31;228.30;;;85.90;;
8297;SDS011;4187;42.778;23.242;2023-01-01T05:19:00;226.73;;;83.40;;
8297;SDS011;4187;42.778;23.242;2023-01-01T05:21:27;194.90;;;72.77;;
8297;SDS011;4187;42.778;23.242;2023-01-01T05:23:57;146.63;;;59.67;;
8297;SDS011;4187;42.778;23.242;2023-01-01T05:26:27;127.00;;;55.03;;
8297;SDS011;4187;42.778;23.242;2023-01-01T05:28:55;227.67;;;81.60;;
8297;SDS011;4187;42.778;23.242;2023-01-01T05:31:23;178.63;;;70.33;;
8297;SDS011;4187;42.778;23.242;2023-01-01T05:33:51;141.63;;;59.00;;
8297;SDS011;4187;42.778;23.242;2023-01-01T05:36:18;140.33;;;57.10;;
8297;SDS011;4187;42.778;23.242;2023-01-01T05:38:46;148.73;;;56.50;;
8297;SDS011;4187;42.778;23.242;2023-01-01T05:41:14;150.07;;;48.43;;
8297;SDS011;4187;42.778;23.242;2023-01-01T05:43:43;121.03;;;56.27;;
8297;SDS011;4187;42.778;23.242;2023-01-01T05:46:11;100.83;;;46.97;;
8297;SDS011;4187;42.778;23.242;2023-01-01T05:48:39;103.67;;;52.33;;
8297;SDS011;4187;42.778;23.242;2023-01-01T05:51:06;113.87;;;51.33;;
8297;SDS011;4187;42.778;23.242;2023-01-01T05:53:34;115.20;;;52.63;;
8297;SDS011;4187;42.778;23.242;2023-01-01T05:56:01;103.87;;;50.40;;
8297;SDS011;4187;42.778;23.242;2023-01-01T05:58:29;110.47;;;51.33;;
8297;SDS011;4187;42.778;23.242;2023-01-01T06:01:05;119.77;;;50.43;;
8297;SDS011;4187;42.778;23.242;2023-01-01T06:03:33;131.97;;;52.17;;
8297;SDS011;4187;42.778;23.242;2023-01-01T06:06:02;108.00;;;44.17;;
8297;SDS011;4187;42.778;23.242;2023-01-01T06:08:30;94.47;;;39.73;;
8297;SDS011;4187;42.778;23.242;2023-01-01T06:10:57;91.77;;;37.87;;
8297;SDS011;4187;42.778;23.242;2023-01-01T06:13:24;85.73;;;33.63;;
8297;SDS011;4187;42.778;23.242;2023-01-01T06:15:52;73.40;;;32.17;;
8297;SDS011;4187;42.778;23.242;2023-01-01T06:18:21;91.77;;;33.17;;
8297;SDS011;4187;42.778;23.242;2023-01-01T06:20:49;59.97;;;29.83;;
8297;SDS011;4187;42.778;23.242;2023-01-01T06:23:16;59.60;;;31.63;;
8297;SDS011;4187;42.778;23.242;2023-01-01T06:25:43;61.13;;;29.43;;
8297;SDS011;4187;42.778;23.242;2023-01-01T06:28:10;55.53;;;28.37;;
8297;SDS011;4187;42.778;23.242;2023-01-01T06:30:36;62.23;;;29.57;;
8297;SDS011;4187;42.778;23.242;2023-01-01T06:33:04;79.27;;;35.00;;
8297;SDS011;4187;42.778;23.242;2023-01-01T06:35:32;118.17;;;46.00;;
8297;SDS011;4187;42.778;23.242;2023-01-01T06:37:59;136.93;;;55.70;;
8297;SDS011;4187;42.778;23.242;2023-01-01T06:40:26;148.53;;;58.43;;
8297;SDS011;4187;42.778;23.242;2023-01-01T06:42:55;190.93;;;69.47;;
8297;SDS011;4187;42.778;23.242;2023-01-01T06:45:24;161.73;;;59.00;;
8297;SDS011;4187;42.778;23.242;2023-01-01T06:47:50;126.67;;;50.23;;
8297;SDS011;4187;42.778;23.242;2023-01-01T06:50:20;112.23;;;51.77;;
8297;SDS011;4187;42.778;23.242;2023-01-01T06:52:48;129.60;;;53.53;;
8297;SDS011;4187;42.778;23.242;2023-01-01T06:55:15;121.60;;;42.47;;
8297;SDS011;4187;42.778;23.242;2023-01-01T06:57:42;59.70;;;30.63;;
8297;SDS011;4187;42.778;23.242;2023-01-01T07:00:09;73.77;;;31.23;;
8297;SDS011;4187;42.778;23.242;2023-01-01T07:02:36;74.33;;;33.77;;
8297;SDS011;4187;42.778;23.242;2023-01-01T07:05:03;92.97;;;33.53;;
8297;SDS011;4187;42.778;23.242;2023-01-01T07:07:30;74.13;;;37.13;;
8297;SDS011;4187;42.778;23.242;2023-01-01T07:09:59;122.00;;;35.57;;
8297;SDS011;4187;42.778;23.242;2023-01-01T07:12:25;82.53;;;30.80;;
8297;SDS011;4187;42.778;23.242;2023-01-01T07:14:52;56.87;;;28.43;;
8297;SDS011;4187;42.778;23.242;2023-01-01T07:17:19;65.73;;;31.83;;
8297;SDS011;4187;42.778;23.242;2023-01-01T07:19:46;60.63;;;30.87;;
8297;SDS011;4187;42.778;23.242;2023-01-01T07:22:13;65.17;;;28.13;;
8297;SDS011;4187;42.778;23.242;2023-01-01T07:24:40;66.27;;;31.40;;
8297;SDS011;4187;42.778;23.242;2023-01-01T07:27:08;51.70;;;29.93;;
8297;SDS011;4187;42.778;23.242;2023-01-01T07:29:35;53.37;;;28.93;;
8297;SDS011;4187;42.778;23.242;2023-01-01T07:32:01;71.97;;;33.60;;
8297;SDS011;4187;42.778;23.242;2023-01-01T07:34:28;61.30;;;33.97;;
8297;SDS011;4187;42.778;23.242;2023-01-01T07:36:55;54.67;;;28.67;;
8297;SDS011;4187;42.778;23.242;2023-01-01T07:39:22;61.70;;;30.50;;
8297;SDS011;4187;42.778;23.242;2023-01-01T07:41:48;57.90;;;31.53;;
8297;SDS011;4187;42.778;23.242;2023-01-01T07:44:17;64.23;;;37.23;;
8297;SDS011;4187;42.778;23.242;2023-01-01T07:46:43;63.03;;;34.47;;
8297;SDS011;4187;42.778;23.242;2023-01-01T07:49:10;117.60;;;32.17;;
8297;SDS011;4187;42.778;23.242;2023-01-01T07:51:37;96.07;;;31.60;;
8297;SDS011;4187;42.778;23.242;2023-01-01T07:54:04;49.67;;;30.50;;
8297;SDS011;4187;42.778;23.242;2023-01-01T07:56:31;51.60;;;31.87;;
8297;SDS011;4187;42.778;23.242;2023-01-01T07:58:59;55.50;;;33.53;;
8297;SDS011;4187;42.778;23.242;2023-01-01T08:01:27;61.50;;;36.00;;
8297;SDS011;4187;42.778;23.242;2023-01-01T08:03:54;63.03;;;36.43;;
8297;SDS011;4187;42.778;23.242;2023-01-01T08:06:20;73.60;;;41.83;;
8297;SDS011;4187;42.778;23.242;2023-01-01T08:08:47;60.63;;;35.77;;
8297;SDS011;4187;42.778;23.242;2023-01-01T08:11:14;72.13;;;38.10;;
8297;SDS011;4187;42.778;23.242;2023-01-01T08:13:41;51.27;;;34.07;;
8297;SDS011;4187;42.778;23.242;2023-01-01T08:16:08;46.77;;;33.33;;
8297;SDS011;4187;42.778;23.242;2023-01-01T08:18:36;49.50;;;33.57;;
8297;SDS011;4187;42.778;23.242;2023-01-01T08:21:03;55.27;;;36.43;;
8297;SDS011;4187;42.778;23.242;2023-01-01T08:23:30;65.83;;;39.57;;
8297;SDS011;4187;42.778;23.242;2023-01-01T08:25:58;61.20;;;39.40;;
8297;SDS011;4187;42.778;23.242;2023-01-01T08:28:25;60.17;;;38.80;;
8297;SDS011;4187;42.778;23.242;2023-01-01T08:30:52;66.07;;;39.37;;
8297;SDS011;4187;42.778;23.242;2023-01-01T08:33:19;72.20;;;42.63;;
8297;SDS011;4187;42.778;23.242;2023-01-01T08:35:48;63.90;;;38.27;;
8297;SDS011;4187;42.778;23.242;2023-01-01T08:38:15;76.83;;;47.00;;
8297;SDS011;4187;42.778;23.242;2023-01-01T08:40:42;59.80;;;36.07;;
8297;SDS011;4187;42.778;23.242;2023-01-01T08:43:09;73.37;;;43.33;;
8297;SDS011;4187;42.778;23.242;2023-01-01T08:45:35;63.83;;;39.73;;
8297;SDS011;4187;42.778;23.242;2023-01-01T08:48:02;55.80;;;37.37;;
8297;SDS011;4187;42.778;23.242;2023-01-01T08:50:30;57.70;;;35.97;;
8297;SDS011;4187;42.778;23.242;2023-01-01T08:52:58;60.50;;;37.73;;
8297;SDS011;4187;42.778;23.242;2023-01-01T08:55:25;72.43;;;46.97;;
8297;SDS011;4187;42.778;23.242;2023-01-01T08:57:51;55.57;;;37.60;;
8297;SDS011;4187;42.778;23.242;2023-01-01T09:00:18;49.77;;;33.87;;
8297;SDS011;4187;42.778;23.242;2023-01-01T09:02:45;43.83;;;30.10;;
8297;SDS011;4187;42.778;23.242;2023-01-01T09:05:12;47.33;;;31.07;;
8297;SDS011;4187;42.778;23.242;2023-01-01T09:07:39;49.67;;;31.20;;
8297;SDS011;4187;42.778;23.242;2023-01-01T09:10:13;50.33;;;30.58;;
8297;SDS011;4187;42.778;23.242;2023-01-01T09:12:41;45.00;;;30.97;;
8297;SDS011;4187;42.778;23.242;2023-01-01T09:15:11;42.00;;;30.30;;
8297;SDS011;4187;42.778;23.242;2023-01-01T09:17:40;43.30;;;29.37;;
8297;SDS011;4187;42.778;23.242;2023-01-01T09:20:07;39.90;;;29.37;;
8297;SDS011;4187;42.778;23.242;2023-01-01T09:22:34;40.60;;;28.73;;
8297;SDS011;4187;42.778;23.242;2023-01-01T09:25:01;38.53;;;29.77;;
8297;SDS011;4187;42.778;23.242;2023-01-01T09:27:29;32.30;;;25.20;;
8297;SDS011;4187;42.778;23.242;2023-01-01T09:29:56;36.40;;;28.23;;
8297;SDS011;4187;42.778;23.242;2023-01-01T09:32:22;37.05;;;27.42;;
8297;SDS011;4187;42.778;23.242;2023-01-01T09:34:49;34.47;;;26.17;;
8297;SDS011;4187;42.778;23.242;2023-01-01T09:37:16;36.10;;;26.90;;
8297;SDS011;4187;42.778;23.242;2023-01-01T09:39:43;35.47;;;26.93;;
8297;SDS011;4187;42.778;23.242;2023-01-01T09:42:17;38.92;;;27.42;;
8297;SDS011;4187;42.778;23.242;2023-01-01T09:47:50;38.90;;;28.45;;
8297;SDS011;4187;42.778;23.242;2023-01-01T09:50:20;34.67;;;27.45;;
8297;SDS011;4187;42.778;23.242;2023-01-01T09:52:50;39.75;;;29.25;;
8297;SDS011;4187;42.778;23.242;2023-01-01T09:55:24;42.78;;;30.77;;
8297;SDS011;4187;42.778;23.242;2023-01-01T09:57:58;51.92;;;36.10;;
8297;SDS011;4187;42.778;23.242;2023-01-01T10:00:26;61.30;;;41.90;;
8297;SDS011;4187;42.778;23.242;2023-01-01T10:03:12;76.88;;;50.22;;
8297;SDS011;4187;42.778;23.242;2023-01-01T10:05:51;78.43;;;49.22;;
8297;SDS011;4187;42.778;23.242;2023-01-01T10:08:33;66.32;;;45.67;;
8297;SDS011;4187;42.778;23.242;2023-01-01T10:11:08;63.92;;;43.30;;
8297;SDS011;4187;42.778;23.242;2023-01-01T10:13:41;58.85;;;41.97;;
8297;SDS011;4187;42.778;23.242;2023-01-01T10:16:11;53.08;;;39.10;;
8297;SDS011;4187;42.778;23.242;2023-01-01T10:18:44;53.20;;;37.22;;
8297;SDS011;4187;42.778;23.242;2023-01-01T10:21:14;50.13;;;39.28;;
8297;SDS011;4187;42.778;23.242;2023-01-01T10:23:44;53.53;;;37.17;;
8297;SDS011;4187;42.778;23.242;2023-01-01T10:26:15;50.08;;;37.47;;
8297;SDS011;4187;42.778;23.242;2023-01-01T10:28:50;54.50;;;40.00;;
8297;SDS011;4187;42.778;23.242;2023-01-01T10:31:29;44.42;;;35.17;;
8297;SDS011;4187;42.778;23.242;2023-01-01T10:33:58;37.35;;;28.15;;
8297;SDS011;4187;42.778;23.242;2023-01-01T10:36:28;44.47;;;33.97;;
8297;SDS011;4187;42.778;23.242;2023-01-01T10:38:55;47.88;;;35.47;;
8297;SDS011;4187;42.778;23.242;2023-01-01T10:41:22;45.80;;;32.72;;
8297;SDS011;4187;42.778;23.242;2023-01-01T10:43:49;48.17;;;36.40;;
8297;SDS011;4187;42.778;23.242;2023-01-01T10:46:17;49.38;;;34.17;;
8297;SDS011;4187;42.778;23.242;2023-01-01T10:49:08;45.22;;;33.58;;
8297;SDS011;4187;42.778;23.242;2023-01-01T10:51:37;50.65;;;35.17;;
8297;SDS011;4187;42.778;23.242;2023-01-01T10:54:17;42.33;;;32.28;;
8297;SDS011;4187;42.778;23.242;2023-01-01T10:57:11;45.65;;;33.63;;
8297;SDS011;4187;42.778;23.242;2023-01-01T10:59:40;33.45;;;27.27;;
8297;SDS011;4187;42.778;23.242;2023-01-01T11:02:13;36.10;;;29.85;;
8297;SDS011;4187;42.778;23.242;2023-01-01T11:04:43;43.88;;;34.55;;
8297;SDS011;4187;42.778;23.242;2023-01-01T11:07:13;47.78;;;35.63;;
8297;SDS011;4187;42.778;23.242;2023-01-01T11:09:54;44.72;;;32.75;;
8297;SDS011;4187;42.778;23.242;2023-01-01T11:12:24;57.03;;;40.50;;
8297;SDS011;4187;42.778;23.242;2023-01-01T11:14:56;50.78;;;40.10;;
8297;SDS011;4187;42.778;23.242;2023-01-01T11:17:24;49.63;;;39.40;;
8297;SDS011;4187;42.778;23.242;2023-01-01T11:19:54;52.45;;;38.03;;
8297;SDS011;4187;42.778;23.242;2023-01-01T11:22:34;40.85;;;31.77;;
8297;SDS011;4187;42.778;23.242;2023-01-01T11:25:15;39.13;;;31.23;;
8297;SDS011;4187;42.778;23.242;2023-01-01T11:27:44;40.40;;;31.20;;
8297;SDS011;4187;42.778;23.242;2023-01-01T11:30:19;35.97;;;28.45;;
8297;SDS011;4187;42.778;23.242;2023-01-01T11:32:52;38.67;;;29.85;;
8297;SDS011;4187;42.778;23.242;2023-01-01T11:35:23;34.47;;;28.27;;
8297;SDS011;4187;42.778;23.242;2023-01-01T11:37:52;34.72;;;27.15;;
8297;SDS011;4187;42.778;23.242;2023-01-01T11:40:21;28.30;;;22.02;;
8297;SDS011;4187;42.778;23.242;2023-01-01T11:42:52;26.77;;;23.35;;
8297;SDS011;4187;42.778;23.242;2023-01-01T11:45:24;32.38;;;23.08;;
8297;SDS011;4187;42.778;23.242;2023-01-01T11:47:55;30.58;;;25.23;;
8297;SDS011;4187;42.778;23.242;2023-01-01T11:50:29;30.80;;;26.23;;
8297;SDS011;4187;42.778;23.242;2023-01-01T11:53:15;37.22;;;29.10;;
8297;SDS011;4187;42.778;23.242;2023-01-01T11:55:44;43.20;;;34.95;;
8297;SDS011;4187;42.778;23.242;2023-01-01T11:58:14;60.08;;;38.38;;
8297;SDS011;4187;42.778;23.242;2023-01-01T12:00:47;64.10;;;43.88;;
8297;SDS011;4187;42.778;23.242;2023-01-01T12:03:18;65.88;;;43.75;;
8297;SDS011;4187;42.778;23.242;2023-01-01T12:05:51;62.70;;;43.78;;
8297;SDS011;4187;42.778;23.242;2023-01-01T12:08:26;66.32;;;43.17;;
8297;SDS011;4187;42.778;23.242;2023-01-01T12:10:59;63.05;;;45.55;;
8297;SDS011;4187;42.778;23.242;2023-01-01T12:13:34;55.33;;;41.00;;
8297;SDS011;4187;42.778;23.242;2023-01-01T12:16:10;63.03;;;45.10;;
8297;SDS011;4187;42.778;23.242;2023-01-01T12:18:41;55.67;;;42.15;;
8297;SDS011;4187;42.778;23.242;2023-01-01T12:21:15;55.17;;;40.60;;
8297;SDS011;4187;42.778;23.242;2023-01-01T12:23:47;54.38;;;37.10;;
8297;SDS011;4187;42.778;23.242;2023-01-01T12:26:16;48.65;;;34.53;;
8297;SDS011;4187;42.778;23.242;2023-01-01T12:31:58;47.67;;;33.03;;
8297;SDS011;4187;42.778;23.242;2023-01-01T12:34:31;45.25;;;31.83;;
8297;SDS011;4187;42.778;23.242;2023-01-01T12:37:05;43.20;;;31.50;;
8297;SDS011;4187;42.778;23.242;2023-01-01T12:42:39;37.60;;;29.15;;
8297;SDS011;4187;42.778;23.242;2023-01-01T12:45:20;37.90;;;29.92;;
8297;SDS011;4187;42.778;23.242;2023-01-01T12:48:14;43.67;;;30.67;;
8297;SDS011;4187;42.778;23.242;2023-01-01T12:50:56;41.10;;;30.88;;
8297;SDS011;4187;42.778;23.242;2023-01-01T12:53:33;40.67;;;30.92;;
8297;SDS011;4187;42.778;23.242;2023-01-01T12:56:14;39.40;;;30.88;;
8297;SDS011;4187;42.778;23.242;2023-01-01T12:58:50;41.42;;;31.80;;
8297;SDS011;4187;42.778;23.242;2023-01-01T13:01:23;39.90;;;32.90;;
8297;SDS011;4187;42.778;23.242;2023-01-01T13:03:53;45.38;;;36.88;;
8297;SDS011;4187;42.778;23.242;2023-01-01T13:06:24;42.45;;;35.03;;
8297;SDS011;4187;42.778;23.242;2023-01-01T13:09:01;41.83;;;34.55;;
8297;SDS011;4187;42.778;23.242;2023-01-01T13:11:32;47.28;;;38.00;;
8297;SDS011;4187;42.778;23.242;2023-01-01T13:14:00;48.42;;;38.25;;
8297;SDS011;4187;42.778;23.242;2023-01-01T13:16:34;50.90;;;39.92;;
8297;SDS011;4187;42.778;23.242;2023-01-01T13:19:02;63.50;;;50.95;;
8297;SDS011;4187;42.778;23.242;2023-01-01T13:21:30;52.65;;;37.13;;
8297;SDS011;4187;42.778;23.242;2023-01-01T13:24:01;43.70;;;36.78;;
8297;SDS011;4187;42.778;23.242;2023-01-01T13:26:37;44.78;;;36.40;;
8297;SDS011;4187;42.778;23.242;2023-01-01T13:32:08;43.95;;;36.20;;
8297;SDS011;4187;42.778;23.242;2023-01-01T13:37:45;48.70;;;38.45;;
8297;SDS011;4187;42.778;23.242;2023-01-01T13:43:29;43.80;;;37.22;;
8297;SDS011;4187;42.778;23.242;2023-01-01T13:45:59;44.63;;;37.30;;
8297;SDS011;4187;42.778;23.242;2023-01-01T13:48:32;45.30;;;36.35;;
8297;SDS011;4187;42.778;23.242;2023-01-01T13:51:18;49.78;;;37.15;;
8297;SDS011;4187;42.778;23.242;2023-01-01T13:54:21;51.28;;;38.53;;
8297;SDS011;4187;42.778;23.242;2023-01-01T13:57:10;54.88;;;40.58;;
8297;SDS011;4187;42.778;23.242;2023-01-01T14:00:19;52.53;;;39.97;;
8297;SDS011;4187;42.778;23.242;2023-01-01T14:02:47;51.05;;;36.28;;
8297;SDS011;4187;42.778;23.242;2023-01-01T14:05:24;49.13;;;38.08;;
8297;SDS011;4187;42.778;23.242;2023-01-01T14:07:55;49.45;;;37.60;;
8297;SDS011;4187;42.778;23.242;2023-01-01T14:10:23;52.50;;;38.38;;
8297;SDS011;4187;42.778;23.242;2023-01-01T14:12:54;47.35;;;35.95;;
8297;SDS011;4187;42.778;23.242;2023-01-01T14:15:25;43.70;;;34.50;;
8297;SDS011;4187;42.778;23.242;2023-01-01T14:17:55;44.35;;;35.10;;
8297;SDS011;4187;42.778;23.242;2023-01-01T14:20:26;52.78;;;35.20;;
8297;SDS011;4187;42.778;23.242;2023-01-01T14:22:59;53.72;;;36.33;;
8297;SDS011;4187;42.778;23.242;2023-01-01T14:25:31;53.70;;;36.67;;
8297;SDS011;4187;42.778;23.242;2023-01-01T14:27:58;52.35;;;36.17;;
8297;SDS011;4187;42.778;23.242;2023-01-01T14:30:26;41.40;;;31.42;;
8297;SDS011;4187;42.778;23.242;2023-01-01T14:32:57;47.80;;;36.58;;
8297;SDS011;4187;42.778;23.242;2023-01-01T14:35:26;58.85;;;42.67;;
8297;SDS011;4187;42.778;23.242;2023-01-01T14:37:53;83.68;;;58.65;;
8297;SDS011;4187;42.778;23.242;2023-01-01T14:40:21;88.57;;;58.75;;
8297;SDS011;4187;42.778;23.242;2023-01-01T14:42:53;58.47;;;44.42;;
8297;SDS011;4187;42.778;23.242;2023-01-01T14:45:23;53.22;;;42.33;;
8297;SDS011;4187;42.778;23.242;2023-01-01T14:47:52;82.65;;;70.32;;
8297;SDS011;4187;42.778;23.242;2023-01-01T14:50:23;62.17;;;51.30;;
8297;SDS011;4187;42.778;23.242;2023-01-01T14:52:54;56.08;;;47.03;;
8297;SDS011;4187;42.778;23.242;2023-01-01T14:55:29;57.63;;;47.13;;
8297;SDS011;4187;42.778;23.242;2023-01-01T14:57:58;55.00;;;44.10;;
8297;SDS011;4187;42.778;23.242;2023-01-01T15:00:28;50.97;;;38.28;;
8297;SDS011;4187;42.778;23.242;2023-01-01T15:03:04;51.22;;;41.42;;
8297;SDS011;4187;42.778;23.242;2023-01-01T15:05:33;68.03;;;48.65;;
8297;SDS011;4187;42.778;23.242;2023-01-01T15:08:02;87.60;;;70.07;;
8297;SDS011;4187;42.778;23.242;2023-01-01T15:10:32;101.43;;;77.90;;
8297;SDS011;4187;42.778;23.242;2023-01-01T15:13:03;65.20;;;49.13;;